sensor_id;sensor_type;location;lat;lon;timestamp;temperature;humidity
53711;DHT22;39605;52.704;6.752;2022-08-03T00:01:29;19.80;99.90
53711;DHT22;39605;52.704;6.752;2022-08-03T00:03:55;19.70;99.90
53711;DHT22;39605;52.704;6.752;2022-08-03T00:06:21;19.70;99.90
53711;DHT22;39605;52.704;6.752;2022-08-03T00:08:48;19.70;99.90
53711;DHT22;39605;52.704;6.752;2022-08-03T00:11:13;19.60;99.90
53711;DHT22;39605;52.704;6.752;2022-08-03T00:13:39;19.60;99.90
53711;DHT22;39605;52.704;6.752;2022-08-03T00:16:05;19.60;99.90
53711;DHT22;39605;52.704;6.752;2022-08-03T00:18:30;19.50;99.90
53711;DHT22;39605;52.704;6.752;2022-08-03T00:20:56;19.50;99.90
53711;DHT22;39605;52.704;6.752;2022-08-03T00:23:21;19.40;99.90
53711;DHT22;39605;52.704;6.752;2022-08-03T00:25:47;19.40;99.90
53711;DHT22;39605;52.704;6.752;2022-08-03T00:28:13;19.40;99.90
53711;DHT22;39605;52.704;6.752;2022-08-03T00:30:38;19.40;99.90
53711;DHT22;39605;52.704;6.752;2022-08-03T00:33:04;19.40;99.90
53711;DHT22;39605;52.704;6.752;2022-08-03T00:35:30;19.40;99.90
53711;DHT22;39605;52.704;6.752;2022-08-03T00:37:56;19.40;99.90
53711;DHT22;39605;52.704;6.752;2022-08-03T00:40:23;19.40;99.90
53711;DHT22;39605;52.704;6.752;2022-08-03T00:42:51;19.40;99.90
53711;DHT22;39605;52.704;6.752;2022-08-03T00:45:19;19.40;99.90
53711;DHT22;39605;52.704;6.752;2022-08-03T00:47:45;19.40;99.90
53711;DHT22;39605;52.704;6.752;2022-08-03T00:50:12;19.40;99.90
53711;DHT22;39605;52.704;6.752;2022-08-03T00:52:38;19.40;99.90
53711;DHT22;39605;52.704;6.752;2022-08-03T00:55:04;19.40;99.90
53711;DHT22;39605;52.704;6.752;2022-08-03T00:57:31;19.40;99.90
53711;DHT22;39605;52.704;6.752;2022-08-03T00:59:57;19.40;99.90
53711;DHT22;39605;52.704;6.752;2022-08-03T01:02:25;19.40;99.90
53711;DHT22;39605;52.704;6.752;2022-08-03T01:04:51;19.40;99.90
53711;DHT22;39605;52.704;6.752;2022-08-03T01:13:30;19.40;99.90
53711;DHT22;39605;52.704;6.752;2022-08-03T01:16:08;19.40;99.90
53711;DHT22;39605;52.704;6.752;2022-08-03T01:18:49;19.40;99.90
53711;DHT22;39605;52.704;6.752;2022-08-03T01:21:45;19.40;99.90
53711;DHT22;39605;52.704;6.752;2022-08-03T01:24:41;19.40;99.90
53711;DHT22;39605;52.704;6.752;2022-08-03T01:27:16;19.40;99.90
53711;DHT22;39605;52.704;6.752;2022-08-03T01:29:56;19.40;99.90
53711;DHT22;39605;52.704;6.752;2022-08-03T01:32:30;19.40;99.90
53711;DHT22;39605;52.704;6.752;2022-08-03T01:35:06;19.40;99.90
53711;DHT22;39605;52.704;6.752;2022-08-03T01:37:40;19.40;99.90
53711;DHT22;39605;52.704;6.752;2022-08-03T01:40:08;19.40;99.90
53711;DHT22;39605;52.704;6.752;2022-08-03T01:42:35;19.40;99.90
53711;DHT22;39605;52.704;6.752;2022-08-03T01:45:03;19.40;99.90
53711;DHT22;39605;52.704;6.752;2022-08-03T01:47:30;19.40;99.90
53711;DHT22;39605;52.704;6.752;2022-08-03T01:49:56;19.40;99.90
53711;DHT22;39605;52.704;6.752;2022-08-03T01:52:23;19.40;99.90
53711;DHT22;39605;52.704;6.752;2022-08-03T01:54:50;19.40;99.90
53711;DHT22;39605;52.704;6.752;2022-08-03T01:57:18;19.40;99.90
53711;DHT22;39605;52.704;6.752;2022-08-03T01:59:46;19.40;99.90
53711;DHT22;39605;52.704;6.752;2022-08-03T02:02:15;19.40;99.90
53711;DHT22;39605;52.704;6.752;2022-08-03T02:04:42;19.40;99.90
53711;DHT22;39605;52.704;6.752;2022-08-03T02:07:09;19.30;99.90
53711;DHT22;39605;52.704;6.752;2022-08-03T02:09:38;19.30;99.90
53711;DHT22;39605;52.704;6.752;2022-08-03T02:12:08;19.30;99.90
53711;DHT22;39605;52.704;6.752;2022-08-03T02:14:36;19.20;99.90
53711;DHT22;39605;52.704;6.752;2022-08-03T02:17:04;19.20;99.90
53711;DHT22;39605;52.704;6.752;2022-08-03T02:19:32;19.10;99.90
53711;DHT22;39605;52.704;6.752;2022-08-03T02:21:59;19.10;99.90
53711;DHT22;39605;52.704;6.752;2022-08-03T02:24:26;19.10;99.90
53711;DHT22;39605;52.704;6.752;2022-08-03T02:26:54;19.10;99.90
53711;DHT22;39605;52.704;6.752;2022-08-03T02:29:23;19.10;99.90
53711;DHT22;39605;52.704;6.752;2022-08-03T02:31:50;19.00;99.90
53711;DHT22;39605;52.704;6.752;2022-08-03T02:34:18;19.00;99.90
53711;DHT22;39605;52.704;6.752;2022-08-03T02:36:48;19.00;99.90
53711;DHT22;39605;52.704;6.752;2022-08-03T02:39:16;19.00;99.90
53711;DHT22;39605;52.704;6.752;2022-08-03T02:41:47;18.90;99.90
53711;DHT22;39605;52.704;6.752;2022-08-03T02:44:17;18.90;99.90
53711;DHT22;39605;52.704;6.752;2022-08-03T02:46:47;18.90;99.90
53711;DHT22;39605;52.704;6.752;2022-08-03T02:49:15;18.90;99.90
53711;DHT22;39605;52.704;6.752;2022-08-03T02:51:44;18.90;99.90
53711;DHT22;39605;52.704;6.752;2022-08-03T02:54:10;18.90;99.90
53711;DHT22;39605;52.704;6.752;2022-08-03T02:56:40;18.80;99.90
53711;DHT22;39605;52.704;6.752;2022-08-03T02:59:06;18.80;99.90
53711;DHT22;39605;52.704;6.752;2022-08-03T03:01:32;18.80;99.90
53711;DHT22;39605;52.704;6.752;2022-08-03T03:03:59;18.80;99.90
53711;DHT22;39605;52.704;6.752;2022-08-03T03:06:25;18.80;99.90
53711;DHT22;39605;52.704;6.752;2022-08-03T03:08:52;18.80;99.90
53711;DHT22;39605;52.704;6.752;2022-08-03T03:11:20;18.80;99.90
53711;DHT22;39605;52.704;6.752;2022-08-03T03:13:47;18.80;99.90
53711;DHT22;39605;52.704;6.752;2022-08-03T03:16:14;18.80;99.90
53711;DHT22;39605;52.704;6.752;2022-08-03T03:18:42;18.70;99.90
53711;DHT22;39605;52.704;6.752;2022-08-03T03:21:09;18.70;99.90
53711;DHT22;39605;52.704;6.752;2022-08-03T03:23:37;18.70;99.90
53711;DHT22;39605;52.704;6.752;2022-08-03T03:26:04;18.70;99.90
53711;DHT22;39605;52.704;6.752;2022-08-03T03:28:31;18.70;99.90
53711;DHT22;39605;52.704;6.752;2022-08-03T03:30:57;18.70;99.90
53711;DHT22;39605;52.704;6.752;2022-08-03T03:33:23;18.60;99.90
53711;DHT22;39605;52.704;6.752;2022-08-03T03:35:50;18.70;99.90
53711;DHT22;39605;52.704;6.752;2022-08-03T03:38:16;18.60;99.90
53711;DHT22;39605;52.704;6.752;2022-08-03T03:40:42;18.60;99.90
53711;DHT22;39605;52.704;6.752;2022-08-03T03:43:09;18.60;99.90
53711;DHT22;39605;52.704;6.752;2022-08-03T03:45:36;18.60;99.90
53711;DHT22;39605;52.704;6.752;2022-08-03T03:48:06;18.60;99.90
53711;DHT22;39605;52.704;6.752;2022-08-03T03:50:33;18.50;99.90
53711;DHT22;39605;52.704;6.752;2022-08-03T03:53:00;18.60;99.90
53711;DHT22;39605;52.704;6.752;2022-08-03T03:55:26;18.50;99.90
53711;DHT22;39605;52.704;6.752;2022-08-03T03:57:52;18.50;99.90
53711;DHT22;39605;52.704;6.752;2022-08-03T04:00:17;18.50;99.90
53711;DHT22;39605;52.704;6.752;2022-08-03T04:02:44;18.50;99.90
53711;DHT22;39605;52.704;6.752;2022-08-03T04:05:11;18.50;99.90
53711;DHT22;39605;52.704;6.752;2022-08-03T04:08:02;18.60;99.90
53711;DHT22;39605;52.704;6.752;2022-08-03T04:14:10;18.60;99.90
53711;DHT22;39605;52.704;6.752;2022-08-03T04:16:45;18.60;99.90
53711;DHT22;39605;52.704;6.752;2022-08-03T04:19:16;18.60;99.90
53711;DHT22;39605;52.704;6.752;2022-08-03T04:21:43;18.60;99.90
53711;DHT22;39605;52.704;6.752;2022-08-03T04:24:12;18.60;99.90
53711;DHT22;39605;52.704;6.752;2022-08-03T04:26:40;18.70;99.90
53711;DHT22;39605;52.704;6.752;2022-08-03T04:29:08;18.70;99.90
53711;DHT22;39605;52.704;6.752;2022-08-03T04:31:36;18.70;99.90
53711;DHT22;39605;52.704;6.752;2022-08-03T04:34:03;18.80;99.90
53711;DHT22;39605;52.704;6.752;2022-08-03T04:36:32;18.80;99.90
53711;DHT22;39605;52.704;6.752;2022-08-03T04:39:02;18.90;99.90
53711;DHT22;39605;52.704;6.752;2022-08-03T04:41:29;18.80;99.90
53711;DHT22;39605;52.704;6.752;2022-08-03T04:43:57;18.80;99.90
53711;DHT22;39605;52.704;6.752;2022-08-03T04:46:33;18.90;99.90
53711;DHT22;39605;52.704;6.752;2022-08-03T04:49:00;18.90;99.90
53711;DHT22;39605;52.704;6.752;2022-08-03T04:51:27;18.90;99.90
53711;DHT22;39605;52.704;6.752;2022-08-03T04:53:53;18.90;99.90
53711;DHT22;39605;52.704;6.752;2022-08-03T04:56:18;18.90;99.90
53711;DHT22;39605;52.704;6.752;2022-08-03T04:58:44;18.90;99.90
53711;DHT22;39605;52.704;6.752;2022-08-03T05:01:10;18.80;99.90
53711;DHT22;39605;52.704;6.752;2022-08-03T05:03:35;18.90;99.90
53711;DHT22;39605;52.704;6.752;2022-08-03T05:06:01;18.90;99.90
53711;DHT22;39605;52.704;6.752;2022-08-03T05:08:27;18.90;99.90
53711;DHT22;39605;52.704;6.752;2022-08-03T05:10:55;18.90;99.90
53711;DHT22;39605;52.704;6.752;2022-08-03T05:13:21;18.90;99.90
53711;DHT22;39605;52.704;6.752;2022-08-03T05:15:47;18.90;99.90
53711;DHT22;39605;52.704;6.752;2022-08-03T05:18:13;18.90;99.90
53711;DHT22;39605;52.704;6.752;2022-08-03T05:20:39;19.00;99.90
53711;DHT22;39605;52.704;6.752;2022-08-03T05:23:05;19.00;99.90
53711;DHT22;39605;52.704;6.752;2022-08-03T05:25:30;19.00;99.90
53711;DHT22;39605;52.704;6.752;2022-08-03T05:27:56;19.10;99.90
53711;DHT22;39605;52.704;6.752;2022-08-03T05:30:22;19.10;99.90
53711;DHT22;39605;52.704;6.752;2022-08-03T05:32:47;19.10;99.90
53711;DHT22;39605;52.704;6.752;2022-08-03T05:35:13;19.20;99.90
53711;DHT22;39605;52.704;6.752;2022-08-03T05:37:39;19.20;99.90
53711;DHT22;39605;52.704;6.752;2022-08-03T05:40:05;19.20;99.90
53711;DHT22;39605;52.704;6.752;2022-08-03T05:42:30;19.20;99.90
53711;DHT22;39605;52.704;6.752;2022-08-03T05:44:56;19.30;99.90
53711;DHT22;39605;52.704;6.752;2022-08-03T05:47:22;19.30;99.90
53711;DHT22;39605;52.704;6.752;2022-08-03T05:49:48;19.30;99.90
53711;DHT22;39605;52.704;6.752;2022-08-03T05:52:13;19.40;99.90
53711;DHT22;39605;52.704;6.752;2022-08-03T05:54:39;19.40;99.90
53711;DHT22;39605;52.704;6.752;2022-08-03T05:57:05;19.50;99.90
53711;DHT22;39605;52.704;6.752;2022-08-03T05:59:30;19.50;99.90
53711;DHT22;39605;52.704;6.752;2022-08-03T06:01:56;19.60;99.90
53711;DHT22;39605;52.704;6.752;2022-08-03T06:04:21;19.60;99.90
53711;DHT22;39605;52.704;6.752;2022-08-03T06:06:47;19.70;99.90
53711;DHT22;39605;52.704;6.752;2022-08-03T06:09:15;19.60;99.90
53711;DHT22;39605;52.704;6.752;2022-08-03T06:11:41;19.70;99.90
53711;DHT22;39605;52.704;6.752;2022-08-03T06:14:06;19.80;99.90
53711;DHT22;39605;52.704;6.752;2022-08-03T06:16:32;19.80;99.90
53711;DHT22;39605;52.704;6.752;2022-08-03T06:18:58;19.90;99.90
53711;DHT22;39605;52.704;6.752;2022-08-03T06:21:23;19.90;99.90
53711;DHT22;39605;52.704;6.752;2022-08-03T06:23:49;20.00;99.90
53711;DHT22;39605;52.704;6.752;2022-08-03T06:26:15;20.00;99.90
53711;DHT22;39605;52.704;6.752;2022-08-03T06:28:43;20.00;99.90
53711;DHT22;39605;52.704;6.752;2022-08-03T06:31:08;20.00;99.90
53711;DHT22;39605;52.704;6.752;2022-08-03T06:33:34;20.10;99.90
53711;DHT22;39605;52.704;6.752;2022-08-03T06:36:00;20.20;99.90
53711;DHT22;39605;52.704;6.752;2022-08-03T06:38:25;20.20;99.90
53711;DHT22;39605;52.704;6.752;2022-08-03T06:40:51;20.30;99.90
53711;DHT22;39605;52.704;6.752;2022-08-03T06:43:16;20.30;99.90
53711;DHT22;39605;52.704;6.752;2022-08-03T06:45:42;20.40;99.90
53711;DHT22;39605;52.704;6.752;2022-08-03T06:48:10;20.50;99.90
53711;DHT22;39605;52.704;6.752;2022-08-03T06:50:38;20.60;99.90
53711;DHT22;39605;52.704;6.752;2022-08-03T06:53:04;20.60;99.90
53711;DHT22;39605;52.704;6.752;2022-08-03T06:55:31;20.70;99.90
53711;DHT22;39605;52.704;6.752;2022-08-03T06:57:56;20.80;99.90
53711;DHT22;39605;52.704;6.752;2022-08-03T07:00:22;21.00;99.90
53711;DHT22;39605;52.704;6.752;2022-08-03T07:02:48;21.10;99.90
53711;DHT22;39605;52.704;6.752;2022-08-03T07:05:14;21.20;99.90
53711;DHT22;39605;52.704;6.752;2022-08-03T07:07:40;21.30;99.90
53711;DHT22;39605;52.704;6.752;2022-08-03T07:10:06;21.40;99.90
53711;DHT22;39605;52.704;6.752;2022-08-03T07:12:33;21.50;99.90
53711;DHT22;39605;52.704;6.752;2022-08-03T07:14:59;21.60;99.90
53711;DHT22;39605;52.704;6.752;2022-08-03T07:17:25;21.70;99.90
53711;DHT22;39605;52.704;6.752;2022-08-03T07:19:51;21.80;99.90
53711;DHT22;39605;52.704;6.752;2022-08-03T07:22:16;21.80;99.90
53711;DHT22;39605;52.704;6.752;2022-08-03T07:24:42;21.80;99.90
53711;DHT22;39605;52.704;6.752;2022-08-03T07:27:08;21.80;99.90
53711;DHT22;39605;52.704;6.752;2022-08-03T07:29:35;21.80;99.90
53711;DHT22;39605;52.704;6.752;2022-08-03T07:32:04;21.80;99.90
53711;DHT22;39605;52.704;6.752;2022-08-03T07:34:30;21.80;99.90
53711;DHT22;39605;52.704;6.752;2022-08-03T07:36:56;21.90;99.90
53711;DHT22;39605;52.704;6.752;2022-08-03T07:39:21;22.00;99.90
53711;DHT22;39605;52.704;6.752;2022-08-03T07:41:47;22.10;99.90
53711;DHT22;39605;52.704;6.752;2022-08-03T07:44:19;22.20;99.90
53711;DHT22;39605;52.704;6.752;2022-08-03T07:46:45;22.30;99.90
53711;DHT22;39605;52.704;6.752;2022-08-03T07:49:11;22.40;99.90
53711;DHT22;39605;52.704;6.752;2022-08-03T07:51:36;22.50;99.90
53711;DHT22;39605;52.704;6.752;2022-08-03T07:54:02;22.60;99.90
53711;DHT22;39605;52.704;6.752;2022-08-03T07:56:28;22.70;99.90
53711;DHT22;39605;52.704;6.752;2022-08-03T07:58:54;22.80;99.90
53711;DHT22;39605;52.704;6.752;2022-08-03T08:01:20;23.00;99.90
53711;DHT22;39605;52.704;6.752;2022-08-03T08:03:47;23.10;99.90
53711;DHT22;39605;52.704;6.752;2022-08-03T08:06:12;23.10;99.90
53711;DHT22;39605;52.704;6.752;2022-08-03T08:08:39;23.20;99.90
53711;DHT22;39605;52.704;6.752;2022-08-03T08:11:05;23.20;99.90
53711;DHT22;39605;52.704;6.752;2022-08-03T08:13:31;23.30;99.90
53711;DHT22;39605;52.704;6.752;2022-08-03T08:15:57;23.30;99.90
53711;DHT22;39605;52.704;6.752;2022-08-03T08:18:23;23.30;99.90
53711;DHT22;39605;52.704;6.752;2022-08-03T08:20:49;23.30;99.90
53711;DHT22;39605;52.704;6.752;2022-08-03T08:23:15;23.30;99.90
53711;DHT22;39605;52.704;6.752;2022-08-03T08:25:47;23.30;99.90
53711;DHT22;39605;52.704;6.752;2022-08-03T08:28:13;23.40;99.90
53711;DHT22;39605;52.704;6.752;2022-08-03T08:30:39;23.50;99.90
53711;DHT22;39605;52.704;6.752;2022-08-03T08:33:05;23.50;99.90
53711;DHT22;39605;52.704;6.752;2022-08-03T08:35:30;23.60;99.90
53711;DHT22;39605;52.704;6.752;2022-08-03T08:37:59;23.70;99.90
53711;DHT22;39605;52.704;6.752;2022-08-03T08:40:26;23.90;99.90
53711;DHT22;39605;52.704;6.752;2022-08-03T08:42:52;24.00;99.90
53711;DHT22;39605;52.704;6.752;2022-08-03T08:45:18;24.20;99.90
53711;DHT22;39605;52.704;6.752;2022-08-03T08:47:46;24.20;99.90
53711;DHT22;39605;52.704;6.752;2022-08-03T08:50:14;24.20;99.90
53711;DHT22;39605;52.704;6.752;2022-08-03T08:52:42;24.30;99.90
53711;DHT22;39605;52.704;6.752;2022-08-03T08:55:10;24.40;99.90
53711;DHT22;39605;52.704;6.752;2022-08-03T08:57:46;24.50;99.90
53711;DHT22;39605;52.704;6.752;2022-08-03T09:00:13;24.60;99.90
53711;DHT22;39605;52.704;6.752;2022-08-03T09:02:39;24.70;99.90
53711;DHT22;39605;52.704;6.752;2022-08-03T09:05:09;24.80;99.90
53711;DHT22;39605;52.704;6.752;2022-08-03T09:07:36;24.90;99.90
53711;DHT22;39605;52.704;6.752;2022-08-03T09:10:02;25.00;99.90
53711;DHT22;39605;52.704;6.752;2022-08-03T09:12:28;25.00;99.90
53711;DHT22;39605;52.704;6.752;2022-08-03T09:14:54;25.10;99.90
53711;DHT22;39605;52.704;6.752;2022-08-03T09:17:20;25.20;99.90
53711;DHT22;39605;52.704;6.752;2022-08-03T09:20:04;25.30;99.90
53711;DHT22;39605;52.704;6.752;2022-08-03T09:22:31;25.40;99.90
53711;DHT22;39605;52.704;6.752;2022-08-03T09:25:03;25.50;99.90
53711;DHT22;39605;52.704;6.752;2022-08-03T09:27:41;25.60;99.90
53711;DHT22;39605;52.704;6.752;2022-08-03T09:30:18;25.70;99.90
53711;DHT22;39605;52.704;6.752;2022-08-03T09:32:44;25.70;99.90
53711;DHT22;39605;52.704;6.752;2022-08-03T09:35:11;25.80;99.90
53711;DHT22;39605;52.704;6.752;2022-08-03T09:37:38;25.90;99.90
53711;DHT22;39605;52.704;6.752;2022-08-03T09:40:04;26.00;99.90
53711;DHT22;39605;52.704;6.752;2022-08-03T09:42:30;26.00;99.90
53711;DHT22;39605;52.704;6.752;2022-08-03T09:44:55;26.10;99.90
53711;DHT22;39605;52.704;6.752;2022-08-03T09:47:33;26.20;99.90
53711;DHT22;39605;52.704;6.752;2022-08-03T09:50:05;26.40;99.90
53711;DHT22;39605;52.704;6.752;2022-08-03T09:52:40;26.50;99.90
53711;DHT22;39605;52.704;6.752;2022-08-03T09:55:11;26.60;99.90
53711;DHT22;39605;52.704;6.752;2022-08-03T09:57:37;26.80;99.90
53711;DHT22;39605;52.704;6.752;2022-08-03T10:00:23;26.90;99.90
53711;DHT22;39605;52.704;6.752;2022-08-03T10:02:48;27.10;99.90
53711;DHT22;39605;52.704;6.752;2022-08-03T10:05:31;27.10;99.90
53711;DHT22;39605;52.704;6.752;2022-08-03T10:07:57;27.20;99.90
53711;DHT22;39605;52.704;6.752;2022-08-03T10:10:23;27.30;99.90
53711;DHT22;39605;52.704;6.752;2022-08-03T10:12:49;27.50;99.90
53711;DHT22;39605;52.704;6.752;2022-08-03T10:15:16;27.60;99.90
53711;DHT22;39605;52.704;6.752;2022-08-03T10:17:41;27.70;99.90
53711;DHT22;39605;52.704;6.752;2022-08-03T10:20:08;27.70;99.90
53711;DHT22;39605;52.704;6.752;2022-08-03T10:22:35;27.90;99.90
53711;DHT22;39605;52.704;6.752;2022-08-03T10:25:11;28.00;99.90
53711;DHT22;39605;52.704;6.752;2022-08-03T10:27:41;28.10;99.90
53711;DHT22;39605;52.704;6.752;2022-08-03T10:30:11;28.20;99.90
53711;DHT22;39605;52.704;6.752;2022-08-03T10:32:58;28.30;99.60
53711;DHT22;39605;52.704;6.752;2022-08-03T10:35:28;28.40;98.70
53711;DHT22;39605;52.704;6.752;2022-08-03T10:37:59;28.60;98.90
53711;DHT22;39605;52.704;6.752;2022-08-03T10:40:28;28.70;98.40
53711;DHT22;39605;52.704;6.752;2022-08-03T10:42:56;28.80;97.40
53711;DHT22;39605;52.704;6.752;2022-08-03T10:45:25;28.90;96.60
53711;DHT22;39605;52.704;6.752;2022-08-03T10:47:52;28.90;96.60
53711;DHT22;39605;52.704;6.752;2022-08-03T10:50:22;29.00;95.60
53711;DHT22;39605;52.704;6.752;2022-08-03T10:55:36;29.20;94.10
53711;DHT22;39605;52.704;6.752;2022-08-03T11:01:15;29.20;94.70
53711;DHT22;39605;52.704;6.752;2022-08-03T11:06:23;29.30;94.50
53711;DHT22;39605;52.704;6.752;2022-08-03T11:11:35;29.70;94.80
53711;DHT22;39605;52.704;6.752;2022-08-03T11:14:05;29.70;93.50
53711;DHT22;39605;52.704;6.752;2022-08-03T11:16:36;29.80;93.70
53711;DHT22;39605;52.704;6.752;2022-08-03T11:19:09;30.10;94.20
53711;DHT22;39605;52.704;6.752;2022-08-03T11:27:21;30.20;92.60
53711;DHT22;39605;52.704;6.752;2022-08-03T11:30:10;30.20;92.40
53711;DHT22;39605;52.704;6.752;2022-08-03T11:35:21;30.40;91.90
53711;DHT22;39605;52.704;6.752;2022-08-03T11:40:46;30.40;90.30
53711;DHT22;39605;52.704;6.752;2022-08-03T11:45:57;30.70;88.60
53711;DHT22;39605;52.704;6.752;2022-08-03T11:51:05;30.80;86.90
53711;DHT22;39605;52.704;6.752;2022-08-03T11:53:30;30.90;88.10
53711;DHT22;39605;52.704;6.752;2022-08-03T11:56:01;31.00;89.00
53711;DHT22;39605;52.704;6.752;2022-08-03T11:58:27;31.10;84.40
53711;DHT22;39605;52.704;6.752;2022-08-03T12:01:03;31.00;85.10
53711;DHT22;39605;52.704;6.752;2022-08-03T12:03:32;31.00;83.90
53711;DHT22;39605;52.704;6.752;2022-08-03T12:05:57;31.10;85.30
53711;DHT22;39605;52.704;6.752;2022-08-03T12:10:52;31.10;82.60
53711;DHT22;39605;52.704;6.752;2022-08-03T12:13:19;31.10;83.20
53711;DHT22;39605;52.704;6.752;2022-08-03T12:15:53;31.30;83.20
53711;DHT22;39605;52.704;6.752;2022-08-03T12:18:20;31.40;80.30
53711;DHT22;39605;52.704;6.752;2022-08-03T12:20:47;31.30;78.70
53711;DHT22;39605;52.704;6.752;2022-08-03T12:23:14;31.40;80.70
53711;DHT22;39605;52.704;6.752;2022-08-03T12:25:41;31.50;78.30
53711;DHT22;39605;52.704;6.752;2022-08-03T12:28:19;31.50;77.50
53711;DHT22;39605;52.704;6.752;2022-08-03T12:30:49;31.50;78.50
53711;DHT22;39605;52.704;6.752;2022-08-03T12:33:24;31.50;74.70
53711;DHT22;39605;52.704;6.752;2022-08-03T12:36:06;31.60;78.70
53711;DHT22;39605;52.704;6.752;2022-08-03T12:38:34;31.70;77.40
53711;DHT22;39605;52.704;6.752;2022-08-03T12:41:06;31.80;77.20
53711;DHT22;39605;52.704;6.752;2022-08-03T12:43:33;31.90;75.70
53711;DHT22;39605;52.704;6.752;2022-08-03T12:46:09;31.90;76.60
53711;DHT22;39605;52.704;6.752;2022-08-03T12:48:35;31.90;72.50
53711;DHT22;39605;52.704;6.752;2022-08-03T12:51:09;31.90;75.10
53711;DHT22;39605;52.704;6.752;2022-08-03T12:53:35;31.90;72.40
53711;DHT22;39605;52.704;6.752;2022-08-03T12:56:03;31.90;71.90
53711;DHT22;39605;52.704;6.752;2022-08-03T12:58:34;31.90;71.30
53711;DHT22;39605;52.704;6.752;2022-08-03T13:01:00;31.90;72.50
53711;DHT22;39605;52.704;6.752;2022-08-03T13:03:26;31.90;71.80
53711;DHT22;39605;52.704;6.752;2022-08-03T13:05:52;32.00;73.70
53711;DHT22;39605;52.704;6.752;2022-08-03T13:08:19;31.90;71.70
53711;DHT22;39605;52.704;6.752;2022-08-03T13:10:45;31.80;71.80
53711;DHT22;39605;52.704;6.752;2022-08-03T13:13:11;31.70;70.00
53711;DHT22;39605;52.704;6.752;2022-08-03T13:15:37;31.60;71.90
53711;DHT22;39605;52.704;6.752;2022-08-03T13:18:03;31.60;69.30
53711;DHT22;39605;52.704;6.752;2022-08-03T13:20:28;31.60;69.50
53711;DHT22;39605;52.704;6.752;2022-08-03T13:22:54;31.60;70.60
53711;DHT22;39605;52.704;6.752;2022-08-03T13:25:21;31.60;70.80
53711;DHT22;39605;52.704;6.752;2022-08-03T13:27:46;31.80;69.80
53711;DHT22;39605;52.704;6.752;2022-08-03T13:30:13;31.80;69.80
53711;DHT22;39605;52.704;6.752;2022-08-03T13:32:39;31.70;73.00
53711;DHT22;39605;52.704;6.752;2022-08-03T13:35:06;31.60;69.70
53711;DHT22;39605;52.704;6.752;2022-08-03T13:37:32;31.50;67.20
53711;DHT22;39605;52.704;6.752;2022-08-03T13:39:58;31.60;71.00
53711;DHT22;39605;52.704;6.752;2022-08-03T13:42:24;31.60;68.10
53711;DHT22;39605;52.704;6.752;2022-08-03T13:44:50;31.70;69.20
53711;DHT22;39605;52.704;6.752;2022-08-03T13:47:16;31.80;70.10
53711;DHT22;39605;52.704;6.752;2022-08-03T13:49:41;31.90;67.60
53711;DHT22;39605;52.704;6.752;2022-08-03T13:52:07;31.90;68.70
53711;DHT22;39605;52.704;6.752;2022-08-03T13:54:33;31.90;67.10
53711;DHT22;39605;52.704;6.752;2022-08-03T13:56:59;31.90;65.20
53711;DHT22;39605;52.704;6.752;2022-08-03T13:59:25;31.90;65.70
53711;DHT22;39605;52.704;6.752;2022-08-03T14:01:51;31.90;66.20
53711;DHT22;39605;52.704;6.752;2022-08-03T14:04:18;31.90;66.20
53711;DHT22;39605;52.704;6.752;2022-08-03T14:06:44;31.90;66.70
53711;DHT22;39605;52.704;6.752;2022-08-03T14:09:11;31.80;66.90
53711;DHT22;39605;52.704;6.752;2022-08-03T14:11:37;31.80;67.60
53711;DHT22;39605;52.704;6.752;2022-08-03T14:14:02;31.80;67.40
53711;DHT22;39605;52.704;6.752;2022-08-03T14:16:28;31.90;70.20
53711;DHT22;39605;52.704;6.752;2022-08-03T14:18:54;31.80;70.80
53711;DHT22;39605;52.704;6.752;2022-08-03T14:21:19;31.80;70.60
53711;DHT22;39605;52.704;6.752;2022-08-03T14:23:45;31.70;70.60
53711;DHT22;39605;52.704;6.752;2022-08-03T14:26:11;31.60;72.40
53711;DHT22;39605;52.704;6.752;2022-08-03T14:28:39;31.50;73.20
53711;DHT22;39605;52.704;6.752;2022-08-03T14:31:05;31.40;73.50
53711;DHT22;39605;52.704;6.752;2022-08-03T14:33:30;31.40;72.40
53711;DHT22;39605;52.704;6.752;2022-08-03T14:35:56;31.40;74.40
53711;DHT22;39605;52.704;6.752;2022-08-03T14:38:22;31.60;73.10
53711;DHT22;39605;52.704;6.752;2022-08-03T14:40:48;31.70;73.40
53711;DHT22;39605;52.704;6.752;2022-08-03T14:43:14;31.70;73.70
53711;DHT22;39605;52.704;6.752;2022-08-03T14:45:42;31.70;74.10
53711;DHT22;39605;52.704;6.752;2022-08-03T14:48:07;31.60;72.20
53711;DHT22;39605;52.704;6.752;2022-08-03T14:50:33;31.60;74.10
53711;DHT22;39605;52.704;6.752;2022-08-03T14:52:59;31.60;73.30
53711;DHT22;39605;52.704;6.752;2022-08-03T14:55:24;31.50;73.40
53711;DHT22;39605;52.704;6.752;2022-08-03T14:57:50;31.40;72.30
53711;DHT22;39605;52.704;6.752;2022-08-03T15:00:16;31.30;73.40
53711;DHT22;39605;52.704;6.752;2022-08-03T15:02:41;31.30;73.50
53711;DHT22;39605;52.704;6.752;2022-08-03T15:05:08;31.30;75.50
53711;DHT22;39605;52.704;6.752;2022-08-03T15:07:35;31.20;74.00
53711;DHT22;39605;52.704;6.752;2022-08-03T15:10:00;31.20;73.70
53711;DHT22;39605;52.704;6.752;2022-08-03T15:12:26;31.20;74.20
53711;DHT22;39605;52.704;6.752;2022-08-03T15:14:52;31.10;73.50
53711;DHT22;39605;52.704;6.752;2022-08-03T15:17:17;31.00;73.90
53711;DHT22;39605;52.704;6.752;2022-08-03T15:19:43;31.00;73.30
53711;DHT22;39605;52.704;6.752;2022-08-03T15:22:09;30.90;74.00
53711;DHT22;39605;52.704;6.752;2022-08-03T15:24:34;30.80;74.10
53711;DHT22;39605;52.704;6.752;2022-08-03T15:27:00;30.60;72.80
53711;DHT22;39605;52.704;6.752;2022-08-03T15:29:25;30.40;72.80
53711;DHT22;39605;52.704;6.752;2022-08-03T15:31:51;30.30;71.90
53711;DHT22;39605;52.704;6.752;2022-08-03T15:34:17;30.30;70.60
53711;DHT22;39605;52.704;6.752;2022-08-03T15:36:43;30.20;70.70
53711;DHT22;39605;52.704;6.752;2022-08-03T15:39:09;30.20;71.50
53711;DHT22;39605;52.704;6.752;2022-08-03T15:41:34;30.00;70.80
53711;DHT22;39605;52.704;6.752;2022-08-03T15:44:01;30.00;71.30
53711;DHT22;39605;52.704;6.752;2022-08-03T15:46:27;29.90;71.30
53711;DHT22;39605;52.704;6.752;2022-08-03T15:48:52;29.80;71.70
53711;DHT22;39605;52.704;6.752;2022-08-03T15:51:21;29.70;72.50
53711;DHT22;39605;52.704;6.752;2022-08-03T15:53:47;29.70;73.50
53711;DHT22;39605;52.704;6.752;2022-08-03T15:56:12;29.60;71.90
53711;DHT22;39605;52.704;6.752;2022-08-03T15:58:38;29.50;73.40
53711;DHT22;39605;52.704;6.752;2022-08-03T16:01:05;29.40;72.00
53711;DHT22;39605;52.704;6.752;2022-08-03T16:03:30;29.40;72.40
53711;DHT22;39605;52.704;6.752;2022-08-03T16:06:04;29.40;71.90
53711;DHT22;39605;52.704;6.752;2022-08-03T16:08:31;29.30;73.40
53711;DHT22;39605;52.704;6.752;2022-08-03T16:10:57;29.30;73.60
53711;DHT22;39605;52.704;6.752;2022-08-03T16:13:23;29.30;74.10